sensor_id;sensor_type;location;lat;lon;timestamp;temperature;humidity
69901;DHT22;57183;50.930;5.406;2023-05-18T00:00:20;9.80;99.90
69901;DHT22;57183;50.930;5.406;2023-05-18T00:02:46;9.70;99.90
69901;DHT22;57183;50.930;5.406;2023-05-18T00:05:15;9.60;99.90
69901;DHT22;57183;50.930;5.406;2023-05-18T00:07:43;9.60;99.90
69901;DHT22;57183;50.930;5.406;2023-05-18T00:10:09;9.60;99.90
69901;DHT22;57183;50.930;5.406;2023-05-18T00:12:35;9.60;99.90
69901;DHT22;57183;50.930;5.406;2023-05-18T00:15:01;9.50;99.90
69901;DHT22;57183;50.930;5.406;2023-05-18T00:17:27;9.50;99.90
69901;DHT22;57183;50.930;5.406;2023-05-18T00:19:52;9.40;99.90
69901;DHT22;57183;50.930;5.406;2023-05-18T00:22:18;9.40;99.90
69901;DHT22;57183;50.930;5.406;2023-05-18T00:24:45;9.40;99.90
69901;DHT22;57183;50.930;5.406;2023-05-18T00:27:11;9.50;99.90
69901;DHT22;57183;50.930;5.406;2023-05-18T00:29:37;9.60;99.90
69901;DHT22;57183;50.930;5.406;2023-05-18T00:32:02;9.50;99.90
69901;DHT22;57183;50.930;5.406;2023-05-18T00:34:28;9.50;99.90
69901;DHT22;57183;50.930;5.406;2023-05-18T00:36:54;9.60;99.90
69901;DHT22;57183;50.930;5.406;2023-05-18T00:39:20;9.50;99.90
69901;DHT22;57183;50.930;5.406;2023-05-18T00:41:45;9.50;99.90
69901;DHT22;57183;50.930;5.406;2023-05-18T00:44:11;9.70;99.90
69901;DHT22;57183;50.930;5.406;2023-05-18T00:46:37;9.60;99.90
69901;DHT22;57183;50.930;5.406;2023-05-18T00:49:11;9.60;99.90
69901;DHT22;57183;50.930;5.406;2023-05-18T00:51:38;9.60;99.90
69901;DHT22;57183;50.930;5.406;2023-05-18T00:54:03;9.60;99.90
69901;DHT22;57183;50.930;5.406;2023-05-18T00:56:30;9.60;99.90
69901;DHT22;57183;50.930;5.406;2023-05-18T00:59:00;9.50;99.90
69901;DHT22;57183;50.930;5.406;2023-05-18T01:01:29;9.50;99.90
69901;DHT22;57183;50.930;5.406;2023-05-18T01:03:56;9.30;99.90
69901;DHT22;57183;50.930;5.406;2023-05-18T01:06:27;9.20;99.90
69901;DHT22;57183;50.930;5.406;2023-05-18T01:08:58;9.30;99.90
69901;DHT22;57183;50.930;5.406;2023-05-18T01:14:35;9.40;99.90
69901;DHT22;57183;50.930;5.406;2023-05-18T01:17:13;9.40;99.90
69901;DHT22;57183;50.930;5.406;2023-05-18T01:27:50;9.50;99.90
69901;DHT22;57183;50.930;5.406;2023-05-18T01:30:16;9.70;99.90
69901;DHT22;57183;50.930;5.406;2023-05-18T01:32:45;9.60;99.90
69901;DHT22;57183;50.930;5.406;2023-05-18T01:35:11;9.60;99.90
69901;DHT22;57183;50.930;5.406;2023-05-18T01:37:37;9.60;99.90
69901;DHT22;57183;50.930;5.406;2023-05-18T01:40:04;9.50;99.90
69901;DHT22;57183;50.930;5.406;2023-05-18T01:42:33;9.30;99.90
69901;DHT22;57183;50.930;5.406;2023-05-18T01:45:07;9.20;99.90
69901;DHT22;57183;50.930;5.406;2023-05-18T01:47:34;9.20;99.90
69901;DHT22;57183;50.930;5.406;2023-05-18T01:50:25;9.20;99.90
69901;DHT22;57183;50.930;5.406;2023-05-18T01:55:41;9.00;99.90
69901;DHT22;57183;50.930;5.406;2023-05-18T01:58:09;8.90;99.90
69901;DHT22;57183;50.930;5.406;2023-05-18T02:00:36;8.90;99.90
69901;DHT22;57183;50.930;5.406;2023-05-18T02:03:02;9.00;99.90
69901;DHT22;57183;50.930;5.406;2023-05-18T02:05:28;9.00;99.90
69901;DHT22;57183;50.930;5.406;2023-05-18T02:07:54;9.00;99.90
69901;DHT22;57183;50.930;5.406;2023-05-18T02:10:20;9.20;99.90
69901;DHT22;57183;50.930;5.406;2023-05-18T02:12:51;9.00;99.90
69901;DHT22;57183;50.930;5.406;2023-05-18T02:15:18;9.00;99.90
69901;DHT22;57183;50.930;5.406;2023-05-18T02:17:44;9.00;99.90
69901;DHT22;57183;50.930;5.406;2023-05-18T02:20:09;8.90;99.90
69901;DHT22;57183;50.930;5.406;2023-05-18T02:22:35;8.90;99.90
69901;DHT22;57183;50.930;5.406;2023-05-18T02:25:02;9.00;99.90
69901;DHT22;57183;50.930;5.406;2023-05-18T02:27:29;9.00;99.90
69901;DHT22;57183;50.930;5.406;2023-05-18T02:29:56;9.00;99.90
69901;DHT22;57183;50.930;5.406;2023-05-18T02:32:22;9.00;99.90
69901;DHT22;57183;50.930;5.406;2023-05-18T02:34:51;8.90;99.90
69901;DHT22;57183;50.930;5.406;2023-05-18T02:37:17;8.80;99.90
69901;DHT22;57183;50.930;5.406;2023-05-18T02:39:43;8.80;99.90
69901;DHT22;57183;50.930;5.406;2023-05-18T02:42:08;8.70;99.90
69901;DHT22;57183;50.930;5.406;2023-05-18T02:44:34;8.80;99.90
69901;DHT22;57183;50.930;5.406;2023-05-18T02:47:03;8.80;99.90
69901;DHT22;57183;50.930;5.406;2023-05-18T02:49:29;8.90;99.90
69901;DHT22;57183;50.930;5.406;2023-05-18T02:51:54;8.90;99.90
69901;DHT22;57183;50.930;5.406;2023-05-18T02:54:20;8.90;99.90
69901;DHT22;57183;50.930;5.406;2023-05-18T02:56:46;8.80;99.90
69901;DHT22;57183;50.930;5.406;2023-05-18T02:59:11;9.10;99.90
69901;DHT22;57183;50.930;5.406;2023-05-18T03:01:37;9.10;99.90
69901;DHT22;57183;50.930;5.406;2023-05-18T03:04:05;9.10;99.90
69901;DHT22;57183;50.930;5.406;2023-05-18T03:06:31;8.90;99.90
69901;DHT22;57183;50.930;5.406;2023-05-18T03:08:57;8.90;99.90
69901;DHT22;57183;50.930;5.406;2023-05-18T03:11:23;9.00;99.90
69901;DHT22;57183;50.930;5.406;2023-05-18T03:13:50;9.10;99.90
69901;DHT22;57183;50.930;5.406;2023-05-18T03:16:16;9.10;99.90
69901;DHT22;57183;50.930;5.406;2023-05-18T03:18:43;9.20;99.90
69901;DHT22;57183;50.930;5.406;2023-05-18T03:21:08;9.10;99.90
69901;DHT22;57183;50.930;5.406;2023-05-18T03:23:37;9.10;99.90
69901;DHT22;57183;50.930;5.406;2023-05-18T03:26:03;9.10;99.90
69901;DHT22;57183;50.930;5.406;2023-05-18T03:28:35;9.00;99.90
69901;DHT22;57183;50.930;5.406;2023-05-18T03:31:01;9.00;99.90
69901;DHT22;57183;50.930;5.406;2023-05-18T03:33:27;9.10;99.90
69901;DHT22;57183;50.930;5.406;2023-05-18T03:35:53;9.00;99.90
69901;DHT22;57183;50.930;5.406;2023-05-18T03:38:19;9.00;99.90
69901;DHT22;57183;50.930;5.406;2023-05-18T03:40:45;9.10;99.90
69901;DHT22;57183;50.930;5.406;2023-05-18T03:43:10;9.10;99.90
69901;DHT22;57183;50.930;5.406;2023-05-18T03:45:36;9.00;99.90
69901;DHT22;57183;50.930;5.406;2023-05-18T03:48:02;8.90;99.90
69901;DHT22;57183;50.930;5.406;2023-05-18T03:50:27;9.10;99.90
69901;DHT22;57183;50.930;5.406;2023-05-18T03:52:53;9.00;99.90
69901;DHT22;57183;50.930;5.406;2023-05-18T03:55:20;9.10;99.90
69901;DHT22;57183;50.930;5.406;2023-05-18T03:57:46;9.10;99.90
69901;DHT22;57183;50.930;5.406;2023-05-18T04:00:13;9.20;99.90
69901;DHT22;57183;50.930;5.406;2023-05-18T04:02:39;9.20;99.90
69901;DHT22;57183;50.930;5.406;2023-05-18T04:05:05;9.30;99.90
69901;DHT22;57183;50.930;5.406;2023-05-18T04:07:31;9.30;99.90
69901;DHT22;57183;50.930;5.406;2023-05-18T04:09:57;9.30;99.90
69901;DHT22;57183;50.930;5.406;2023-05-18T04:12:23;9.30;99.90
69901;DHT22;57183;50.930;5.406;2023-05-18T04:14:48;9.30;99.90
69901;DHT22;57183;50.930;5.406;2023-05-18T04:17:19;9.20;99.90
69901;DHT22;57183;50.930;5.406;2023-05-18T04:19:48;9.10;99.90
69901;DHT22;57183;50.930;5.406;2023-05-18T04:22:15;8.90;99.90
69901;DHT22;57183;50.930;5.406;2023-05-18T04:24:41;8.90;99.90
69901;DHT22;57183;50.930;5.406;2023-05-18T04:27:07;9.00;99.90
69901;DHT22;57183;50.930;5.406;2023-05-18T04:29:34;9.10;99.90
69901;DHT22;57183;50.930;5.406;2023-05-18T04:32:06;9.10;99.90
69901;DHT22;57183;50.930;5.406;2023-05-18T04:34:33;9.10;99.90
69901;DHT22;57183;50.930;5.406;2023-05-18T04:37:03;9.30;99.90
69901;DHT22;57183;50.930;5.406;2023-05-18T04:39:32;9.40;99.90
69901;DHT22;57183;50.930;5.406;2023-05-18T04:42:00;9.30;99.90
69901;DHT22;57183;50.930;5.406;2023-05-18T04:44:29;9.30;99.90
69901;DHT22;57183;50.930;5.406;2023-05-18T04:46:56;9.50;99.90
69901;DHT22;57183;50.930;5.406;2023-05-18T04:49:23;9.60;99.90
69901;DHT22;57183;50.930;5.406;2023-05-18T04:51:51;9.60;99.90
69901;DHT22;57183;50.930;5.406;2023-05-18T04:54:28;9.70;99.90
69901;DHT22;57183;50.930;5.406;2023-05-18T04:56:57;9.70;99.90
69901;DHT22;57183;50.930;5.406;2023-05-18T04:59:23;9.60;99.90
69901;DHT22;57183;50.930;5.406;2023-05-18T05:01:51;9.70;99.90
69901;DHT22;57183;50.930;5.406;2023-05-18T05:04:18;9.80;99.90
69901;DHT22;57183;50.930;5.406;2023-05-18T05:06:43;9.80;99.90
69901;DHT22;57183;50.930;5.406;2023-05-18T05:09:09;9.50;99.90
69901;DHT22;57183;50.930;5.406;2023-05-18T05:11:38;9.50;99.90
69901;DHT22;57183;50.930;5.406;2023-05-18T05:14:04;9.60;99.90
69901;DHT22;57183;50.930;5.406;2023-05-18T05:16:29;9.70;99.90
69901;DHT22;57183;50.930;5.406;2023-05-18T05:18:55;9.90;99.90
69901;DHT22;57183;50.930;5.406;2023-05-18T05:21:21;10.00;99.90
69901;DHT22;57183;50.930;5.406;2023-05-18T05:23:47;10.20;99.90
69901;DHT22;57183;50.930;5.406;2023-05-18T05:26:12;10.10;99.90
69901;DHT22;57183;50.930;5.406;2023-05-18T05:28:38;10.10;99.90
69901;DHT22;57183;50.930;5.406;2023-05-18T05:31:11;10.10;99.90
69901;DHT22;57183;50.930;5.406;2023-05-18T05:33:37;10.10;99.90
69901;DHT22;57183;50.930;5.406;2023-05-18T05:36:03;10.00;99.90
69901;DHT22;57183;50.930;5.406;2023-05-18T05:38:33;10.10;99.90
69901;DHT22;57183;50.930;5.406;2023-05-18T05:40:59;10.10;99.90
69901;DHT22;57183;50.930;5.406;2023-05-18T05:43:25;10.40;99.90
69901;DHT22;57183;50.930;5.406;2023-05-18T05:45:51;10.50;99.90
69901;DHT22;57183;50.930;5.406;2023-05-18T05:48:16;10.50;99.90
69901;DHT22;57183;50.930;5.406;2023-05-18T05:50:42;10.60;99.90
69901;DHT22;57183;50.930;5.406;2023-05-18T05:53:08;10.70;99.90
69901;DHT22;57183;50.930;5.406;2023-05-18T05:55:35;10.90;99.90
69901;DHT22;57183;50.930;5.406;2023-05-18T05:58:09;11.00;99.90
69901;DHT22;57183;50.930;5.406;2023-05-18T06:00:35;11.20;99.90
69901;DHT22;57183;50.930;5.406;2023-05-18T06:03:01;11.20;99.90
69901;DHT22;57183;50.930;5.406;2023-05-18T06:05:27;11.20;99.90
69901;DHT22;57183;50.930;5.406;2023-05-18T06:07:52;11.30;99.90
69901;DHT22;57183;50.930;5.406;2023-05-18T06:10:19;11.40;99.90
69901;DHT22;57183;50.930;5.406;2023-05-18T06:12:45;11.40;99.90
69901;DHT22;57183;50.930;5.406;2023-05-18T06:15:10;11.50;99.90
69901;DHT22;57183;50.930;5.406;2023-05-18T06:17:36;11.60;99.90
69901;DHT22;57183;50.930;5.406;2023-05-18T06:20:04;11.90;99.90
69901;DHT22;57183;50.930;5.406;2023-05-18T06:22:31;12.00;99.90
69901;DHT22;57183;50.930;5.406;2023-05-18T06:24:57;12.10;99.90
69901;DHT22;57183;50.930;5.406;2023-05-18T06:27:23;12.10;99.90
69901;DHT22;57183;50.930;5.406;2023-05-18T06:29:48;11.80;99.90
69901;DHT22;57183;50.930;5.406;2023-05-18T06:32:14;12.00;99.90
69901;DHT22;57183;50.930;5.406;2023-05-18T06:34:40;12.30;99.90
69901;DHT22;57183;50.930;5.406;2023-05-18T06:37:06;12.30;99.90
69901;DHT22;57183;50.930;5.406;2023-05-18T06:39:32;12.40;99.90
69901;DHT22;57183;50.930;5.406;2023-05-18T06:41:58;12.40;99.90
69901;DHT22;57183;50.930;5.406;2023-05-18T06:44:27;12.40;99.90
69901;DHT22;57183;50.930;5.406;2023-05-18T06:46:52;12.20;99.90
69901;DHT22;57183;50.930;5.406;2023-05-18T06:49:18;12.40;99.90
69901;DHT22;57183;50.930;5.406;2023-05-18T06:51:44;12.50;99.90
69901;DHT22;57183;50.930;5.406;2023-05-18T06:54:10;12.70;99.90
69901;DHT22;57183;50.930;5.406;2023-05-18T06:56:35;12.70;99.90
69901;DHT22;57183;50.930;5.406;2023-05-18T06:59:01;12.90;99.90
69901;DHT22;57183;50.930;5.406;2023-05-18T07:01:27;12.90;99.90
69901;DHT22;57183;50.930;5.406;2023-05-18T07:03:53;13.00;99.90
69901;DHT22;57183;50.930;5.406;2023-05-18T07:06:19;13.00;99.90
69901;DHT22;57183;50.930;5.406;2023-05-18T07:08:45;13.20;99.90
69901;DHT22;57183;50.930;5.406;2023-05-18T07:11:12;13.40;99.90
69901;DHT22;57183;50.930;5.406;2023-05-18T07:13:37;13.60;99.90
69901;DHT22;57183;50.930;5.406;2023-05-18T07:16:03;13.50;99.90
69901;DHT22;57183;50.930;5.406;2023-05-18T07:18:29;13.50;99.90
69901;DHT22;57183;50.930;5.406;2023-05-18T07:20:54;13.60;99.90
69901;DHT22;57183;50.930;5.406;2023-05-18T07:23:20;13.70;99.90
69901;DHT22;57183;50.930;5.406;2023-05-18T07:25:47;13.90;99.90
69901;DHT22;57183;50.930;5.406;2023-05-18T07:28:15;14.10;99.90
69901;DHT22;57183;50.930;5.406;2023-05-18T07:30:41;14.10;99.90
69901;DHT22;57183;50.930;5.406;2023-05-18T07:33:07;14.10;99.90
69901;DHT22;57183;50.930;5.406;2023-05-18T07:35:33;14.10;99.90
69901;DHT22;57183;50.930;5.406;2023-05-18T07:37:58;14.00;99.90
69901;DHT22;57183;50.930;5.406;2023-05-18T07:40:24;14.10;99.90
69901;DHT22;57183;50.930;5.406;2023-05-18T07:42:50;14.20;99.90
69901;DHT22;57183;50.930;5.406;2023-05-18T07:45:16;14.30;99.90
69901;DHT22;57183;50.930;5.406;2023-05-18T07:47:41;14.40;99.90
69901;DHT22;57183;50.930;5.406;2023-05-18T07:50:07;14.60;99.90
69901;DHT22;57183;50.930;5.406;2023-05-18T07:52:33;14.70;99.90
69901;DHT22;57183;50.930;5.406;2023-05-18T07:54:59;14.90;99.90
69901;DHT22;57183;50.930;5.406;2023-05-18T07:57:26;14.90;99.90
69901;DHT22;57183;50.930;5.406;2023-05-18T07:59:51;14.80;99.90
69901;DHT22;57183;50.930;5.406;2023-05-18T08:02:17;15.10;99.90
69901;DHT22;57183;50.930;5.406;2023-05-18T08:04:45;15.10;99.90
69901;DHT22;57183;50.930;5.406;2023-05-18T08:07:10;15.00;99.90
69901;DHT22;57183;50.930;5.406;2023-05-18T08:09:37;14.90;99.90
69901;DHT22;57183;50.930;5.406;2023-05-18T08:12:04;15.10;99.90
69901;DHT22;57183;50.930;5.406;2023-05-18T08:14:29;15.20;99.90
69901;DHT22;57183;50.930;5.406;2023-05-18T08:16:55;15.40;99.90
69901;DHT22;57183;50.930;5.406;2023-05-18T08:19:21;15.40;99.90
69901;DHT22;57183;50.930;5.406;2023-05-18T08:21:46;15.60;99.90
69901;DHT22;57183;50.930;5.406;2023-05-18T08:24:12;15.50;99.60
69901;DHT22;57183;50.930;5.406;2023-05-18T08:26:38;15.80;99.90
69901;DHT22;57183;50.930;5.406;2023-05-18T08:29:04;15.70;98.40
69901;DHT22;57183;50.930;5.406;2023-05-18T08:31:38;15.70;97.60
69901;DHT22;57183;50.930;5.406;2023-05-18T08:34:05;15.50;98.40
69901;DHT22;57183;50.930;5.406;2023-05-18T08:36:33;15.50;99.60
69901;DHT22;57183;50.930;5.406;2023-05-18T08:38:59;15.60;97.40
69901;DHT22;57183;50.930;5.406;2023-05-18T08:41:35;15.80;99.70
69901;DHT22;57183;50.930;5.406;2023-05-18T08:44:09;15.80;98.00
69901;DHT22;57183;50.930;5.406;2023-05-18T08:46:40;15.80;98.40
69901;DHT22;57183;50.930;5.406;2023-05-18T08:49:08;15.80;96.90
69901;DHT22;57183;50.930;5.406;2023-05-18T08:51:36;15.80;97.10
69901;DHT22;57183;50.930;5.406;2023-05-18T08:54:04;15.70;98.30
69901;DHT22;57183;50.930;5.406;2023-05-18T08:56:32;15.70;97.80
69901;DHT22;57183;50.930;5.406;2023-05-18T08:58:59;15.80;97.70
69901;DHT22;57183;50.930;5.406;2023-05-18T09:01:29;15.90;96.60
69901;DHT22;57183;50.930;5.406;2023-05-18T09:03:56;16.00;96.90
69901;DHT22;57183;50.930;5.406;2023-05-18T09:06:23;16.00;96.10
69901;DHT22;57183;50.930;5.406;2023-05-18T09:09:00;15.80;96.50
69901;DHT22;57183;50.930;5.406;2023-05-18T09:11:32;15.90;95.20
69901;DHT22;57183;50.930;5.406;2023-05-18T09:13:58;15.90;95.20
69901;DHT22;57183;50.930;5.406;2023-05-18T09:16:25;15.60;96.20
69901;DHT22;57183;50.930;5.406;2023-05-18T09:18:51;15.70;97.00
69901;DHT22;57183;50.930;5.406;2023-05-18T09:21:17;15.60;97.00
69901;DHT22;57183;50.930;5.406;2023-05-18T09:23:43;15.80;94.60
69901;DHT22;57183;50.930;5.406;2023-05-18T09:26:10;16.00;96.70
69901;DHT22;57183;50.930;5.406;2023-05-18T09:28:41;16.20;96.40
69901;DHT22;57183;50.930;5.406;2023-05-18T09:31:15;16.10;96.20
69901;DHT22;57183;50.930;5.406;2023-05-18T09:33:42;16.20;96.10
69901;DHT22;57183;50.930;5.406;2023-05-18T09:36:09;16.40;96.20
69901;DHT22;57183;50.930;5.406;2023-05-18T09:38:38;16.30;93.70
69901;DHT22;57183;50.930;5.406;2023-05-18T09:41:09;16.20;95.30
69901;DHT22;57183;50.930;5.406;2023-05-18T09:43:35;16.30;95.10
69901;DHT22;57183;50.930;5.406;2023-05-18T09:46:05;16.60;95.80
69901;DHT22;57183;50.930;5.406;2023-05-18T09:48:31;16.60;94.70
69901;DHT22;57183;50.930;5.406;2023-05-18T09:50:59;16.30;94.40
69901;DHT22;57183;50.930;5.406;2023-05-18T09:53:25;16.20;95.10
69901;DHT22;57183;50.930;5.406;2023-05-18T09:55:50;16.30;96.10
69901;DHT22;57183;50.930;5.406;2023-05-18T09:58:16;16.40;94.80
69901;DHT22;57183;50.930;5.406;2023-05-18T10:00:47;16.50;95.00
69901;DHT22;57183;50.930;5.406;2023-05-18T10:03:22;16.70;94.50
69901;DHT22;57183;50.930;5.406;2023-05-18T10:05:48;16.50;94.70
69901;DHT22;57183;50.930;5.406;2023-05-18T10:08:14;16.50;95.80
69901;DHT22;57183;50.930;5.406;2023-05-18T10:10:43;16.40;96.10
69901;DHT22;57183;50.930;5.406;2023-05-18T10:13:12;16.30;96.00
69901;DHT22;57183;50.930;5.406;2023-05-18T10:15:46;16.20;96.50
69901;DHT22;57183;50.930;5.406;2023-05-18T10:18:16;16.50;97.00
69901;DHT22;57183;50.930;5.406;2023-05-18T10:20:46;16.70;96.70
69901;DHT22;57183;50.930;5.406;2023-05-18T10:23:12;16.60;96.50
69901;DHT22;57183;50.930;5.406;2023-05-18T10:25:41;16.80;96.90
69901;DHT22;57183;50.930;5.406;2023-05-18T10:28:09;16.70;95.30
69901;DHT22;57183;50.930;5.406;2023-05-18T10:30:35;16.50;96.50
69901;DHT22;57183;50.930;5.406;2023-05-18T10:33:01;16.50;96.00
69901;DHT22;57183;50.930;5.406;2023-05-18T10:35:29;16.70;95.60
69901;DHT22;57183;50.930;5.406;2023-05-18T10:37:56;16.80;95.90
69901;DHT22;57183;50.930;5.406;2023-05-18T10:40:23;16.90;95.60
69901;DHT22;57183;50.930;5.406;2023-05-18T10:42:52;16.70;94.70
69901;DHT22;57183;50.930;5.406;2023-05-18T10:45:21;16.80;94.70
69901;DHT22;57183;50.930;5.406;2023-05-18T10:47:49;16.80;94.70
69901;DHT22;57183;50.930;5.406;2023-05-18T10:50:22;16.50;93.20
69901;DHT22;57183;50.930;5.406;2023-05-18T10:52:49;16.50;94.50
69901;DHT22;57183;50.930;5.406;2023-05-18T10:55:16;16.70;95.20
69901;DHT22;57183;50.930;5.406;2023-05-18T10:57:47;17.00;94.30
69901;DHT22;57183;50.930;5.406;2023-05-18T11:00:15;16.90;93.20
69901;DHT22;57183;50.930;5.406;2023-05-18T11:02:42;17.20;94.50
69901;DHT22;57183;50.930;5.406;2023-05-18T11:05:08;17.40;93.20
69901;DHT22;57183;50.930;5.406;2023-05-18T11:07:35;17.10;95.30
69901;DHT22;57183;50.930;5.406;2023-05-18T11:10:02;17.20;95.20
69901;DHT22;57183;50.930;5.406;2023-05-18T11:12:30;17.10;91.80
69901;DHT22;57183;50.930;5.406;2023-05-18T11:14:58;17.20;93.20
69901;DHT22;57183;50.930;5.406;2023-05-18T11:17:28;17.40;93.30
69901;DHT22;57183;50.930;5.406;2023-05-18T11:22:51;17.80;92.50
69901;DHT22;57183;50.930;5.406;2023-05-18T11:28:02;17.90;93.60
69901;DHT22;57183;50.930;5.406;2023-05-18T11:30:44;17.70;91.20
69901;DHT22;57183;50.930;5.406;2023-05-18T11:33:11;17.70;91.50
69901;DHT22;57183;50.930;5.406;2023-05-18T11:36:09;17.60;91.50
69901;DHT22;57183;50.930;5.406;2023-05-18T11:46:35;17.50;93.00
69901;DHT22;57183;50.930;5.406;2023-05-18T11:49:06;17.60;91.70
69901;DHT22;57183;50.930;5.406;2023-05-18T11:51:32;17.70;90.20
69901;DHT22;57183;50.930;5.406;2023-05-18T11:53:59;17.90;92.20
69901;DHT22;57183;50.930;5.406;2023-05-18T11:56:25;18.10;90.20
69901;DHT22;57183;50.930;5.406;2023-05-18T11:59:11;18.00;90.20
69901;DHT22;57183;50.930;5.406;2023-05-18T12:01:37;18.10;88.30
69901;DHT22;57183;50.930;5.406;2023-05-18T12:04:03;17.80;88.10
69901;DHT22;57183;50.930;5.406;2023-05-18T12:06:29;17.80;89.30
69901;DHT22;57183;50.930;5.406;2023-05-18T12:08:55;17.70;89.00
69901;DHT22;57183;50.930;5.406;2023-05-18T12:11:21;17.60;82.10
69901;DHT22;57183;50.930;5.406;2023-05-18T12:13:48;17.80;86.20
69901;DHT22;57183;50.930;5.406;2023-05-18T12:16:16;18.00;88.70
69901;DHT22;57183;50.930;5.406;2023-05-18T12:18:48;18.20;89.60
69901;DHT22;57183;50.930;5.406;2023-05-18T12:21:13;18.10;86.70
69901;DHT22;57183;50.930;5.406;2023-05-18T12:23:41;18.20;88.60
69901;DHT22;57183;50.930;5.406;2023-05-18T12:26:07;18.10;87.10
69901;DHT22;57183;50.930;5.406;2023-05-18T12:28:32;18.00;88.70
69901;DHT22;57183;50.930;5.406;2023-05-18T12:30:58;17.80;85.30
69901;DHT22;57183;50.930;5.406;2023-05-18T12:33:24;17.90;90.80
69901;DHT22;57183;50.930;5.406;2023-05-18T12:35:50;18.00;90.00
69901;DHT22;57183;50.930;5.406;2023-05-18T12:38:19;18.20;87.80
69901;DHT22;57183;50.930;5.406;2023-05-18T12:40:45;18.00;85.30
69901;DHT22;57183;50.930;5.406;2023-05-18T12:43:13;18.10;86.60
69901;DHT22;57183;50.930;5.406;2023-05-18T12:45:39;18.30;90.50
69901;DHT22;57183;50.930;5.406;2023-05-18T12:48:06;18.50;84.80
69901;DHT22;57183;50.930;5.406;2023-05-18T12:50:32;18.70;88.20
69901;DHT22;57183;50.930;5.406;2023-05-18T12:52:59;18.90;83.40
69901;DHT22;57183;50.930;5.406;2023-05-18T12:55:26;19.10;84.20
69901;DHT22;57183;50.930;5.406;2023-05-18T13:00:34;19.20;83.40
69901;DHT22;57183;50.930;5.406;2023-05-18T13:03:07;19.20;83.70
69901;DHT22;57183;50.930;5.406;2023-05-18T13:05:33;19.40;80.30
69901;DHT22;57183;50.930;5.406;2023-05-18T13:07:59;19.10;79.80
69901;DHT22;57183;50.930;5.406;2023-05-18T13:10:29;19.20;81.20
69901;DHT22;57183;50.930;5.406;2023-05-18T13:12:55;19.10;83.60
69901;DHT22;57183;50.930;5.406;2023-05-18T13:15:32;19.00;81.10
69901;DHT22;57183;50.930;5.406;2023-05-18T13:23:17;18.80;79.80
69901;DHT22;57183;50.930;5.406;2023-05-18T13:25:44;18.90;79.70
69901;DHT22;57183;50.930;5.406;2023-05-18T13:28:12;19.30;78.60
69901;DHT22;57183;50.930;5.406;2023-05-18T13:30:39;19.60;80.10
69901;DHT22;57183;50.930;5.406;2023-05-18T13:33:06;19.20;79.70
69901;DHT22;57183;50.930;5.406;2023-05-18T13:35:34;19.10;78.10
69901;DHT22;57183;50.930;5.406;2023-05-18T13:38:00;19.20;78.00
69901;DHT22;57183;50.930;5.406;2023-05-18T13:40:26;19.10;78.50
69901;DHT22;57183;50.930;5.406;2023-05-18T13:42:52;18.90;79.90
69901;DHT22;57183;50.930;5.406;2023-05-18T13:45:18;19.10;81.30
69901;DHT22;57183;50.930;5.406;2023-05-18T13:47:46;19.20;80.70
69901;DHT22;57183;50.930;5.406;2023-05-18T13:50:15;19.30;81.30
69901;DHT22;57183;50.930;5.406;2023-05-18T13:52:41;19.50;79.00
69901;DHT22;57183;50.930;5.406;2023-05-18T13:55:07;19.90;77.00
69901;DHT22;57183;50.930;5.406;2023-05-18T13:57:33;20.30;77.80
69901;DHT22;57183;50.930;5.406;2023-05-18T13:59:59;21.20;76.10
69901;DHT22;57183;50.930;5.406;2023-05-18T14:02:27;21.70;74.50
69901;DHT22;57183;50.930;5.406;2023-05-18T14:04:53;22.70;72.00
69901;DHT22;57183;50.930;5.406;2023-05-18T14:07:18;22.50;72.30
69901;DHT22;57183;50.930;5.406;2023-05-18T14:09:44;23.10;73.20
69901;DHT22;57183;50.930;5.406;2023-05-18T14:12:10;23.20;69.00
69901;DHT22;57183;50.930;5.406;2023-05-18T14:14:37;23.20;68.90
69901;DHT22;57183;50.930;5.406;2023-05-18T14:17:03;23.30;69.30
69901;DHT22;57183;50.930;5.406;2023-05-18T14:19:29;23.40;68.10
69901;DHT22;57183;50.930;5.406;2023-05-18T14:21:55;23.20;66.90
69901;DHT22;57183;50.930;5.406;2023-05-18T14:24:20;23.10;66.10
69901;DHT22;57183;50.930;5.406;2023-05-18T14:26:46;22.80;68.20
69901;DHT22;57183;50.930;5.406;2023-05-18T14:29:11;23.10;70.20
69901;DHT22;57183;50.930;5.406;2023-05-18T14:31:37;22.60;68.20
69901;DHT22;57183;50.930;5.406;2023-05-18T14:34:03;22.90;66.90
69901;DHT22;57183;50.930;5.406;2023-05-18T14:36:28;23.80;67.00
69901;DHT22;57183;50.930;5.406;2023-05-18T14:38:54;24.00;67.20
69901;DHT22;57183;50.930;5.406;2023-05-18T14:41:20;25.40;66.40
69901;DHT22;57183;50.930;5.406;2023-05-18T14:43:46;26.00;62.20
69901;DHT22;57183;50.930;5.406;2023-05-18T14:46:12;26.70;58.30
69901;DHT22;57183;50.930;5.406;2023-05-18T14:48:38;27.40;57.20
69901;DHT22;57183;50.930;5.406;2023-05-18T14:51:03;28.00;55.70
69901;DHT22;57183;50.930;5.406;2023-05-18T14:53:29;27.80;55.80
69901;DHT22;57183;50.930;5.406;2023-05-18T14:55:54;27.60;54.30
69901;DHT22;57183;50.930;5.406;2023-05-18T14:58:21;27.30;54.20
69901;DHT22;57183;50.930;5.406;2023-05-18T15:00:46;26.70;55.40
69901;DHT22;57183;50.930;5.406;2023-05-18T15:03:12;26.70;54.70
69901;DHT22;57183;50.930;5.406;2023-05-18T15:05:38;27.40;53.10
69901;DHT22;57183;50.930;5.406;2023-05-18T15:08:04;27.30;53.70
69901;DHT22;57183;50.930;5.406;2023-05-18T15:10:30;26.00;55.00
69901;DHT22;57183;50.930;5.406;2023-05-18T15:12:55;26.40;53.60
69901;DHT22;57183;50.930;5.406;2023-05-18T15:15:21;26.50;54.20
69901;DHT22;57183;50.930;5.406;2023-05-18T15:17:46;26.50;55.40
69901;DHT22;57183;50.930;5.406;2023-05-18T15:20:12;26.00;55.10
69901;DHT22;57183;50.930;5.406;2023-05-18T15:22:38;25.80;54.60
69901;DHT22;57183;50.930;5.406;2023-05-18T15:25:06;25.60;53.90
69901;DHT22;57183;50.930;5.406;2023-05-18T15:27:33;25.90;53.90
69901;DHT22;57183;50.930;5.406;2023-05-18T15:29:59;26.70;53.10
69901;DHT22;57183;50.930;5.406;2023-05-18T15:32:24;27.00;54.50
69901;DHT22;57183;50.930;5.406;2023-05-18T15:34:50;27.00;53.80
69901;DHT22;57183;50.930;5.406;2023-05-18T15:37:17;27.60;53.40
69901;DHT22;57183;50.930;5.406;2023-05-18T15:39:43;27.70;51.80
69901;DHT22;57183;50.930;5.406;2023-05-18T15:42:09;28.30;53.40
69901;DHT22;57183;50.930;5.406;2023-05-18T15:44:35;28.20;51.90
69901;DHT22;57183;50.930;5.406;2023-05-18T15:47:01;27.60;51.80
69901;DHT22;57183;50.930;5.406;2023-05-18T15:49:26;27.00;52.60
69901;DHT22;57183;50.930;5.406;2023-05-18T15:51:53;27.80;52.00
69901;DHT22;57183;50.930;5.406;2023-05-18T15:54:18;27.00;51.30
69901;DHT22;57183;50.930;5.406;2023-05-18T15:56:44;26.10;53.10
69901;DHT22;57183;50.930;5.406;2023-05-18T15:59:10;25.40;54.40
69901;DHT22;57183;50.930;5.406;2023-05-18T16:01:35;23.70;57.00
69901;DHT22;57183;50.930;5.406;2023-05-18T16:04:01;22.70;58.70
69901;DHT22;57183;50.930;5.406;2023-05-18T16:06:27;22.60;59.30
69901;DHT22;57183;50.930;5.406;2023-05-18T16:08:53;23.50;60.00